CST,Max TemperatureF,Mean TemperatureF,Min TemperatureF,Max Dew PointF,MeanDew PointF,Min DewpointF,Max Humidity, Mean Humidity, Min Humidity, Max Sea Level PressureIn, Mean Sea Level PressureIn, Min Sea Level PressureIn, Max VisibilityMiles, Mean VisibilityMiles, Min VisibilityMiles, Max Wind SpeedMPH, Mean Wind SpeedMPH, Max Gust SpeedMPH,PrecipitationIn, CloudCover, Events, WindDirDegrees
2013-1-1,71,61,51,67,56,42,93,80,67,30.18,30.04,29.88,10,10,6,29,15,38,0.06,7,Rain,353
2013-1-2,51,47,43,41,37,34,89,75,60,30.32,30.26,30.19,10,10,7,23,13,29,0.18,8,Rain,4
2013-1-3,52,48,44,37,34,30,76,60,44,30.40,30.35,30.30,10,10,10,20,12,23,0.00,8,,10
2013-1-4,52,50,47,37,36,35,65,60,54,30.44,30.39,30.35,10,10,10,22,14,31,T,8,,12
2013-1-5,51,49,46,45,42,37,86,74,61,30.36,30.31,30.26,10,10,6,21,11,26,0.03,8,Rain,1
2013-1-6,67,55,42,46,42,38,89,63,37,30.37,30.30,30.26,10,10,4,15,9,23,0.00,2,,14
2013-1-7,65,53,40,55,47,36,93,75,56,30.32,30.16,30.00,10,9,4,20,11,23,0.01,4,Rain,52
2013-1-8,72,65,58,66,62,55,97,91,84,29.98,29.87,29.77,10,6,1,30,13,37,0.17,8,Rain,94
2013-1-9,71,63,55,67,60,54,93,87,81,30.05,29.92,29.82,10,10,4,22,9,28,0.71,7,Rain,271
2013-1-10,71,61,51,54,50,46,93,69,44,30.11,30.06,30.03,10,10,10,18,7,21,0.00,1,,217
2013-1-11,80,64,48,70,61,46,100,81,62,30.04,29.91,29.82,10,6,0,26,12,31,0.00,5,Fog,152
2013-1-12,81,76,71,70,70,69,93,81,69,29.84,29.74,29.66,10,7,2,31,20,38,0.00,5,,162
2013-1-13,73,61,49,70,45,34,93,65,37,30.11,29.96,29.72,10,8,3,32,17,39,0.01,7,Rain,5
2013-1-14,51,47,43,43,38,34,70,62,54,30.19,30.12,30.08,10,9,4,21,14,25,T,8,Rain,19
2013-1-15,46,45,43,44,40,35,93,85,76,30.24,30.11,30.05,10,7,3,24,15,29,0.08,8,Rain,351
2013-1-16,61,49,36,31,24,16,70,44,17,30.40,30.31,30.23,10,10,10,28,13,37,0.00,1,,313
2013-1-17,71,53,35,39,31,23,70,47,24,30.47,30.40,30.33,10,10,10,17,8,22,0.00,0,,340
2013-1-18,68,54,39,49,41,34,83,63,42,30.51,30.42,30.33,10,10,10,16,8,22,0.00,1,,55
2013-1-19,74,60,45,52,47,42,93,64,35,30.31,30.24,30.16,10,10,10,16,7,20,0.00,1,,111
2013-1-20,76,62,47,54,50,44,93,70,46,30.25,30.18,30.11,10,10,7,16,5,20,0.00,1,Fog,114
2013-1-21,74,62,50,57,51,45,93,64,35,30.24,30.17,30.12,10,10,9,16,6,20,0.00,1,,89
2013-1-22,76,62,47,58,52,48,93,69,44,30.30,30.24,30.18,10,10,10,18,8,22,0.00,0,Fog,85
2013-1-23,80,66,52,63,58,52,93,72,51,30.33,30.27,30.22,10,9,1,22,9,28,0.00,2,Fog,141
2013-1-24,85,71,56,63,60,54,100,70,40,30.30,30.21,30.14,10,9,6,24,12,30,0.00,0,Fog,165
2013-1-25,84,71,58,65,60,55,97,74,51,30.17,30.11,30.04,10,7,0,28,14,32,0.00,3,Fog,162
2013-1-26,82,73,63,64,61,57,93,69,45,30.14,30.09,30.05,10,10,9,26,15,32,0.00,1,,152
2013-1-27,80,73,65,68,66,61,93,78,62,30.08,30.03,29.97,10,10,7,31,19,39,0.00,6,,146
2013-1-28,81,76,71,70,68,66,90,79,67,30.08,29.97,29.90,10,9,6,33,23,40,T,7,,153
2013-1-29,91,81,70,68,64,39,93,62,31,29.91,29.74,29.58,10,10,8,37,24,46,T,4,,169
2013-1-30,72,61,50,39,19,7,35,22,8,30.25,30.07,29.78,10,10,10,38,19,48,0.00,2,,343
2013-1-31,73,55,36,44,28,14,61,38,14,30.34,30.27,30.22,10,10,10,22,8,28,0.00,0,,179